sensor_id;sensor_type;location;lat;lon;timestamp;P1;durP1;ratioP1;P2;durP2;ratioP2
76210;SDS011;65003;49.518;11.280;2023-03-20T00:00:24;4.03;;;3.67;;
76210;SDS011;65003;49.518;11.280;2023-03-20T00:02:52;4.10;;;3.70;;
76210;SDS011;65003;49.518;11.280;2023-03-20T00:05:21;3.50;;;3.20;;
76210;SDS011;65003;49.518;11.280;2023-03-20T00:07:47;5.47;;;3.50;;
76210;SDS011;65003;49.518;11.280;2023-03-20T00:10:15;4.37;;;3.67;;
76210;SDS011;65003;49.518;11.280;2023-03-20T00:12:42;4.63;;;4.17;;
76210;SDS011;65003;49.518;11.280;2023-03-20T00:15:21;6.10;;;3.60;;
76210;SDS011;65003;49.518;11.280;2023-03-20T00:17:46;4.43;;;4.00;;
76210;SDS011;65003;49.518;11.280;2023-03-20T00:20:16;5.20;;;4.27;;
76210;SDS011;65003;49.518;11.280;2023-03-20T00:22:41;4.40;;;3.90;;
76210;SDS011;65003;49.518;11.280;2023-03-20T00:25:12;7.70;;;4.70;;
76210;SDS011;65003;49.518;11.280;2023-03-20T00:27:39;4.13;;;3.73;;
76210;SDS011;65003;49.518;11.280;2023-03-20T00:32:40;4.67;;;4.27;;
76210;SDS011;65003;49.518;11.280;2023-03-20T00:35:14;5.20;;;4.70;;
76210;SDS011;65003;49.518;11.280;2023-03-20T00:37:49;6.23;;;5.47;;
76210;SDS011;65003;49.518;11.280;2023-03-20T00:40:16;6.53;;;5.83;;
76210;SDS011;65003;49.518;11.280;2023-03-20T00:42:43;7.27;;;5.87;;
76210;SDS011;65003;49.518;11.280;2023-03-20T00:45:11;8.43;;;6.53;;
76210;SDS011;65003;49.518;11.280;2023-03-20T00:47:37;8.60;;;6.77;;
76210;SDS011;65003;49.518;11.280;2023-03-20T00:50:06;8.77;;;6.77;;
76210;SDS011;65003;49.518;11.280;2023-03-20T00:52:32;8.57;;;6.50;;
76210;SDS011;65003;49.518;11.280;2023-03-20T00:54:58;6.43;;;5.07;;
76210;SDS011;65003;49.518;11.280;2023-03-20T00:57:26;6.10;;;4.90;;
76210;SDS011;65003;49.518;11.280;2023-03-20T00:59:54;7.43;;;5.70;;
76210;SDS011;65003;49.518;11.280;2023-03-20T01:02:20;8.73;;;5.83;;
76210;SDS011;65003;49.518;11.280;2023-03-20T01:04:48;6.53;;;5.37;;
76210;SDS011;65003;49.518;11.280;2023-03-20T01:07:14;6.23;;;5.17;;
76210;SDS011;65003;49.518;11.280;2023-03-20T01:09:41;8.13;;;5.40;;
76210;SDS011;65003;49.518;11.280;2023-03-20T01:12:10;8.13;;;5.20;;
76210;SDS011;65003;49.518;11.280;2023-03-20T01:14:37;6.77;;;4.97;;
76210;SDS011;65003;49.518;11.280;2023-03-20T01:17:04;5.87;;;5.17;;
76210;SDS011;65003;49.518;11.280;2023-03-20T01:19:31;6.30;;;4.87;;
76210;SDS011;65003;49.518;11.280;2023-03-20T01:21:57;5.80;;;4.97;;
76210;SDS011;65003;49.518;11.280;2023-03-20T01:24:24;5.83;;;5.17;;
76210;SDS011;65003;49.518;11.280;2023-03-20T01:26:50;9.40;;;6.20;;
76210;SDS011;65003;49.518;11.280;2023-03-20T01:29:18;8.13;;;6.00;;
76210;SDS011;65003;49.518;11.280;2023-03-20T01:31:46;9.50;;;6.03;;
76210;SDS011;65003;49.518;11.280;2023-03-20T01:34:12;6.93;;;5.73;;
76210;SDS011;65003;49.518;11.280;2023-03-20T01:36:39;6.83;;;6.13;;
76210;SDS011;65003;49.518;11.280;2023-03-20T01:39:05;5.90;;;5.17;;
76210;SDS011;65003;49.518;11.280;2023-03-20T01:41:32;8.83;;;5.97;;
76210;SDS011;65003;49.518;11.280;2023-03-20T01:43:59;7.53;;;6.73;;
76210;SDS011;65003;49.518;11.280;2023-03-20T01:46:26;8.67;;;6.50;;
76210;SDS011;65003;49.518;11.280;2023-03-20T01:48:55;7.40;;;6.70;;
76210;SDS011;65003;49.518;11.280;2023-03-20T01:51:22;6.40;;;5.73;;
76210;SDS011;65003;49.518;11.280;2023-03-20T01:53:50;9.70;;;6.17;;
76210;SDS011;65003;49.518;11.280;2023-03-20T01:56:16;7.87;;;6.43;;
76210;SDS011;65003;49.518;11.280;2023-03-20T01:58:45;7.00;;;6.30;;
76210;SDS011;65003;49.518;11.280;2023-03-20T02:01:12;6.57;;;5.47;;
76210;SDS011;65003;49.518;11.280;2023-03-20T02:03:39;6.40;;;5.40;;
76210;SDS011;65003;49.518;11.280;2023-03-20T02:06:06;6.17;;;5.33;;
76210;SDS011;65003;49.518;11.280;2023-03-20T02:08:39;6.90;;;5.87;;
76210;SDS011;65003;49.518;11.280;2023-03-20T02:11:02;5.47;;;4.97;;
76210;SDS011;65003;49.518;11.280;2023-03-20T02:13:29;6.87;;;5.90;;
76210;SDS011;65003;49.518;11.280;2023-03-20T02:15:57;6.33;;;5.50;;
76210;SDS011;65003;49.518;11.280;2023-03-20T02:18:23;6.93;;;5.20;;
76210;SDS011;65003;49.518;11.280;2023-03-20T02:21:29;6.40;;;5.07;;
76210;SDS011;65003;49.518;11.280;2023-03-20T02:23:47;4.80;;;4.27;;
76210;SDS011;65003;49.518;11.280;2023-03-20T02:26:11;5.93;;;4.07;;
76210;SDS011;65003;49.518;11.280;2023-03-20T02:28:44;5.73;;;4.50;;
76210;SDS011;65003;49.518;11.280;2023-03-20T02:31:35;7.97;;;4.17;;
76210;SDS011;65003;49.518;11.280;2023-03-20T02:34:12;4.67;;;3.97;;
76210;SDS011;65003;49.518;11.280;2023-03-20T02:37:47;4.10;;;3.70;;
76210;SDS011;65003;49.518;11.280;2023-03-20T02:39:41;4.90;;;4.30;;
76210;SDS011;65003;49.518;11.280;2023-03-20T02:42:17;5.73;;;4.43;;
76210;SDS011;65003;49.518;11.280;2023-03-20T02:44:50;5.27;;;3.97;;
76210;SDS011;65003;49.518;11.280;2023-03-20T02:47:20;5.30;;;4.80;;
76210;SDS011;65003;49.518;11.280;2023-03-20T02:50:12;5.30;;;4.20;;
76210;SDS011;65003;49.518;11.280;2023-03-20T02:52:47;4.80;;;3.60;;
76210;SDS011;65003;49.518;11.280;2023-03-20T02:55:19;7.57;;;5.07;;
76210;SDS011;65003;49.518;11.280;2023-03-20T02:57:53;5.03;;;4.53;;
76210;SDS011;65003;49.518;11.280;2023-03-20T03:00:22;4.93;;;4.20;;
76210;SDS011;65003;49.518;11.280;2023-03-20T03:02:51;5.00;;;4.27;;
76210;SDS011;65003;49.518;11.280;2023-03-20T03:05:20;5.10;;;4.20;;
76210;SDS011;65003;49.518;11.280;2023-03-20T03:07:47;4.90;;;4.00;;
76210;SDS011;65003;49.518;11.280;2023-03-20T03:10:15;6.37;;;4.40;;
76210;SDS011;65003;49.518;11.280;2023-03-20T03:12:42;4.60;;;4.00;;
76210;SDS011;65003;49.518;11.280;2023-03-20T03:15:16;5.13;;;4.17;;
76210;SDS011;65003;49.518;11.280;2023-03-20T03:17:46;5.05;;;4.55;;
76210;SDS011;65003;49.518;11.280;2023-03-20T03:20:28;5.13;;;4.33;;
76210;SDS011;65003;49.518;11.280;2023-03-20T03:22:53;6.20;;;4.40;;
76210;SDS011;65003;49.518;11.280;2023-03-20T03:25:20;6.90;;;4.60;;
76210;SDS011;65003;49.518;11.280;2023-03-20T03:27:47;6.57;;;4.80;;
76210;SDS011;65003;49.518;11.280;2023-03-20T03:33:04;6.50;;;4.33;;
76210;SDS011;65003;49.518;11.280;2023-03-20T03:35:40;6.20;;;4.30;;
76210;SDS011;65003;49.518;11.280;2023-03-20T03:38:27;4.43;;;4.03;;
76210;SDS011;65003;49.518;11.280;2023-03-20T03:40:59;6.63;;;4.10;;
76210;SDS011;65003;49.518;11.280;2023-03-20T03:43:45;5.17;;;4.67;;
76210;SDS011;65003;49.518;11.280;2023-03-20T03:46:13;4.83;;;4.10;;
76210;SDS011;65003;49.518;11.280;2023-03-20T03:48:43;4.27;;;3.87;;
76210;SDS011;65003;49.518;11.280;2023-03-20T03:51:10;4.23;;;3.83;;
76210;SDS011;65003;49.518;11.280;2023-03-20T03:53:37;4.80;;;4.30;;
76210;SDS011;65003;49.518;11.280;2023-03-20T03:56:04;4.97;;;4.47;;
76210;SDS011;65003;49.518;11.280;2023-03-20T03:58:30;5.00;;;4.50;;
76210;SDS011;65003;49.518;11.280;2023-03-20T04:00:56;5.83;;;4.00;;
76210;SDS011;65003;49.518;11.280;2023-03-20T04:03:23;5.10;;;4.57;;
76210;SDS011;65003;49.518;11.280;2023-03-20T04:05:50;5.03;;;4.40;;
76210;SDS011;65003;49.518;11.280;2023-03-20T04:08:17;5.20;;;4.70;;
76210;SDS011;65003;49.518;11.280;2023-03-20T04:10:44;4.63;;;4.10;;
76210;SDS011;65003;49.518;11.280;2023-03-20T04:13:12;4.27;;;3.80;;
76210;SDS011;65003;49.518;11.280;2023-03-20T04:15:39;4.33;;;4.03;;
76210;SDS011;65003;49.518;11.280;2023-03-20T04:18:06;4.97;;;3.70;;
76210;SDS011;65003;49.518;11.280;2023-03-20T04:20:35;4.50;;;3.93;;
76210;SDS011;65003;49.518;11.280;2023-03-20T04:23:03;4.50;;;4.03;;
76210;SDS011;65003;49.518;11.280;2023-03-20T04:25:30;4.90;;;4.40;;
76210;SDS011;65003;49.518;11.280;2023-03-20T04:27:56;6.37;;;4.73;;
76210;SDS011;65003;49.518;11.280;2023-03-20T04:30:23;5.90;;;4.87;;
76210;SDS011;65003;49.518;11.280;2023-03-20T04:32:49;5.37;;;4.53;;
76210;SDS011;65003;49.518;11.280;2023-03-20T04:35:17;4.90;;;4.47;;
76210;SDS011;65003;49.518;11.280;2023-03-20T04:37:44;4.63;;;3.97;;
76210;SDS011;65003;49.518;11.280;2023-03-20T04:40:12;7.40;;;4.17;;
76210;SDS011;65003;49.518;11.280;2023-03-20T04:42:39;5.67;;;4.30;;
76210;SDS011;65003;49.518;11.280;2023-03-20T04:45:06;5.07;;;4.03;;
76210;SDS011;65003;49.518;11.280;2023-03-20T04:47:34;4.67;;;3.87;;
76210;SDS011;65003;49.518;11.280;2023-03-20T04:50:00;4.47;;;4.07;;
76210;SDS011;65003;49.518;11.280;2023-03-20T04:52:28;4.93;;;4.43;;
76210;SDS011;65003;49.518;11.280;2023-03-20T04:54:55;6.10;;;4.60;;
76210;SDS011;65003;49.518;11.280;2023-03-20T04:57:24;4.67;;;3.87;;
76210;SDS011;65003;49.518;11.280;2023-03-20T04:59:50;5.83;;;4.30;;
76210;SDS011;65003;49.518;11.280;2023-03-20T05:02:18;5.63;;;4.87;;
76210;SDS011;65003;49.518;11.280;2023-03-20T05:04:45;5.83;;;4.70;;
76210;SDS011;65003;49.518;11.280;2023-03-20T05:07:11;6.00;;;5.10;;
76210;SDS011;65003;49.518;11.280;2023-03-20T05:09:38;5.40;;;4.83;;
76210;SDS011;65003;49.518;11.280;2023-03-20T05:12:07;7.53;;;4.70;;
76210;SDS011;65003;49.518;11.280;2023-03-20T05:14:33;6.53;;;5.83;;
76210;SDS011;65003;49.518;11.280;2023-03-20T05:17:00;6.07;;;5.03;;
76210;SDS011;65003;49.518;11.280;2023-03-20T05:19:26;6.40;;;5.50;;
76210;SDS011;65003;49.518;11.280;2023-03-20T05:21:53;5.97;;;5.03;;
76210;SDS011;65003;49.518;11.280;2023-03-20T05:24:20;5.60;;;4.90;;
76210;SDS011;65003;49.518;11.280;2023-03-20T05:26:46;11.53;;;7.83;;
76210;SDS011;65003;49.518;11.280;2023-03-20T05:29:14;10.27;;;6.57;;
76210;SDS011;65003;49.518;11.280;2023-03-20T05:31:41;6.60;;;5.90;;
76210;SDS011;65003;49.518;11.280;2023-03-20T05:34:07;6.33;;;5.60;;
76210;SDS011;65003;49.518;11.280;2023-03-20T05:36:34;6.83;;;5.90;;
76210;SDS011;65003;49.518;11.280;2023-03-20T05:39:02;6.37;;;5.37;;
76210;SDS011;65003;49.518;11.280;2023-03-20T05:41:31;7.00;;;5.83;;
76210;SDS011;65003;49.518;11.280;2023-03-20T05:43:58;8.47;;;6.73;;
76210;SDS011;65003;49.518;11.280;2023-03-20T05:46:25;10.57;;;7.60;;
76210;SDS011;65003;49.518;11.280;2023-03-20T05:48:51;7.00;;;6.17;;
76210;SDS011;65003;49.518;11.280;2023-03-20T05:51:18;6.80;;;6.10;;
76210;SDS011;65003;49.518;11.280;2023-03-20T05:53:45;6.75;;;6.10;;
76210;SDS011;65003;49.518;11.280;2023-03-20T05:56:13;7.73;;;6.37;;
76210;SDS011;65003;49.518;11.280;2023-03-20T05:58:40;8.03;;;6.27;;
76210;SDS011;65003;49.518;11.280;2023-03-20T06:01:06;7.10;;;6.40;;
76210;SDS011;65003;49.518;11.280;2023-03-20T06:03:34;7.00;;;6.00;;
76210;SDS011;65003;49.518;11.280;2023-03-20T06:06:02;8.47;;;7.63;;
76210;SDS011;65003;49.518;11.280;2023-03-20T06:08:30;10.00;;;8.07;;
76210;SDS011;65003;49.518;11.280;2023-03-20T06:10:56;10.53;;;7.13;;
76210;SDS011;65003;49.518;11.280;2023-03-20T06:13:24;8.87;;;7.77;;
76210;SDS011;65003;49.518;11.280;2023-03-20T06:15:51;8.97;;;7.53;;
76210;SDS011;65003;49.518;11.280;2023-03-20T06:18:18;10.20;;;8.57;;
76210;SDS011;65003;49.518;11.280;2023-03-20T06:20:45;11.07;;;7.40;;
76210;SDS011;65003;49.518;11.280;2023-03-20T06:23:24;8.73;;;7.80;;
76210;SDS011;65003;49.518;11.280;2023-03-20T06:25:51;9.70;;;8.70;;
76210;SDS011;65003;49.518;11.280;2023-03-20T06:28:19;9.77;;;8.83;;
76210;SDS011;65003;49.518;11.280;2023-03-20T06:30:46;10.10;;;9.10;;
76210;SDS011;65003;49.518;11.280;2023-03-20T06:33:13;9.97;;;8.20;;
76210;SDS011;65003;49.518;11.280;2023-03-20T06:35:42;10.83;;;9.20;;
76210;SDS011;65003;49.518;11.280;2023-03-20T06:38:10;11.77;;;9.60;;
76210;SDS011;65003;49.518;11.280;2023-03-20T06:40:37;10.57;;;9.20;;
76210;SDS011;65003;49.518;11.280;2023-03-20T06:43:04;10.33;;;9.23;;
76210;SDS011;65003;49.518;11.280;2023-03-20T06:45:30;12.17;;;9.20;;
76210;SDS011;65003;49.518;11.280;2023-03-20T06:47:57;10.73;;;9.60;;
76210;SDS011;65003;49.518;11.280;2023-03-20T06:50:24;11.07;;;9.97;;
76210;SDS011;65003;49.518;11.280;2023-03-20T06:52:50;10.13;;;9.10;;
76210;SDS011;65003;49.518;11.280;2023-03-20T06:55:17;9.70;;;8.70;;
76210;SDS011;65003;49.518;11.280;2023-03-20T06:57:44;10.53;;;9.53;;
76210;SDS011;65003;49.518;11.280;2023-03-20T07:00:10;12.83;;;9.53;;
76210;SDS011;65003;49.518;11.280;2023-03-20T07:02:38;11.37;;;10.00;;
76210;SDS011;65003;49.518;11.280;2023-03-20T07:05:05;12.47;;;9.27;;
76210;SDS011;65003;49.518;11.280;2023-03-20T07:07:32;11.57;;;9.87;;
76210;SDS011;65003;49.518;11.280;2023-03-20T07:09:59;12.73;;;9.93;;
76210;SDS011;65003;49.518;11.280;2023-03-20T07:12:26;10.73;;;9.63;;
76210;SDS011;65003;49.518;11.280;2023-03-20T07:14:53;9.47;;;8.47;;
76210;SDS011;65003;49.518;11.280;2023-03-20T07:17:19;9.13;;;8.20;;
76210;SDS011;65003;49.518;11.280;2023-03-20T07:19:46;10.77;;;7.90;;
76210;SDS011;65003;49.518;11.280;2023-03-20T07:24:47;11.73;;;9.47;;
76210;SDS011;65003;49.518;11.280;2023-03-20T07:27:14;12.00;;;9.80;;
76210;SDS011;65003;49.518;11.280;2023-03-20T07:29:43;10.97;;;9.87;;
76210;SDS011;65003;49.518;11.280;2023-03-20T07:32:09;11.87;;;9.63;;
76210;SDS011;65003;49.518;11.280;2023-03-20T07:34:36;11.10;;;10.00;;
76210;SDS011;65003;49.518;11.280;2023-03-20T07:37:03;17.77;;;14.80;;
76210;SDS011;65003;49.518;11.280;2023-03-20T07:39:30;10.87;;;9.77;;
76210;SDS011;65003;49.518;11.280;2023-03-20T07:41:57;14.23;;;12.77;;
76210;SDS011;65003;49.518;11.280;2023-03-20T07:44:23;15.13;;;13.03;;
76210;SDS011;65003;49.518;11.280;2023-03-20T07:46:50;10.70;;;9.47;;
76210;SDS011;65003;49.518;11.280;2023-03-20T07:49:16;13.17;;;11.10;;
76210;SDS011;65003;49.518;11.280;2023-03-20T07:51:43;13.90;;;12.60;;
76210;SDS011;65003;49.518;11.280;2023-03-20T07:54:11;14.83;;;11.47;;
76210;SDS011;65003;49.518;11.280;2023-03-20T07:56:37;16.53;;;11.70;;
76210;SDS011;65003;49.518;11.280;2023-03-20T07:59:04;13.67;;;12.27;;
76210;SDS011;65003;49.518;11.280;2023-03-20T08:01:32;14.60;;;13.20;;
76210;SDS011;65003;49.518;11.280;2023-03-20T08:04:00;14.17;;;11.67;;
76210;SDS011;65003;49.518;11.280;2023-03-20T08:06:26;12.00;;;10.93;;
76210;SDS011;65003;49.518;11.280;2023-03-20T08:08:53;13.90;;;12.53;;
76210;SDS011;65003;49.518;11.280;2023-03-20T08:11:20;13.03;;;11.63;;
76210;SDS011;65003;49.518;11.280;2023-03-20T08:13:46;11.77;;;9.80;;
76210;SDS011;65003;49.518;11.280;2023-03-20T08:16:13;12.23;;;9.97;;
76210;SDS011;65003;49.518;11.280;2023-03-20T08:18:39;10.53;;;9.13;;
76210;SDS011;65003;49.518;11.280;2023-03-20T08:21:07;10.03;;;9.03;;
76210;SDS011;65003;49.518;11.280;2023-03-20T08:23:33;12.30;;;9.80;;
76210;SDS011;65003;49.518;11.280;2023-03-20T08:26:00;9.40;;;8.40;;
76210;SDS011;65003;49.518;11.280;2023-03-20T08:28:27;10.43;;;9.13;;
76210;SDS011;65003;49.518;11.280;2023-03-20T08:30:54;11.30;;;10.20;;
76210;SDS011;65003;49.518;11.280;2023-03-20T08:33:20;10.37;;;9.40;;
76210;SDS011;65003;49.518;11.280;2023-03-20T08:35:54;19.50;;;18.03;;
76210;SDS011;65003;49.518;11.280;2023-03-20T08:38:21;51.57;;;47.30;;
76210;SDS011;65003;49.518;11.280;2023-03-20T08:40:47;22.57;;;20.63;;
76210;SDS011;65003;49.518;11.280;2023-03-20T08:43:14;20.63;;;18.70;;
76210;SDS011;65003;49.518;11.280;2023-03-20T08:45:40;10.90;;;10.00;;
76210;SDS011;65003;49.518;11.280;2023-03-20T08:48:07;8.07;;;7.20;;
76210;SDS011;65003;49.518;11.280;2023-03-20T08:50:34;10.30;;;9.30;;
76210;SDS011;65003;49.518;11.280;2023-03-20T08:53:01;9.10;;;7.00;;
76210;SDS011;65003;49.518;11.280;2023-03-20T08:55:28;7.17;;;6.47;;
76210;SDS011;65003;49.518;11.280;2023-03-20T08:57:54;7.90;;;6.70;;
76210;SDS011;65003;49.518;11.280;2023-03-20T09:00:21;8.20;;;7.40;;
76210;SDS011;65003;49.518;11.280;2023-03-20T09:02:48;6.63;;;6.03;;
76210;SDS011;65003;49.518;11.280;2023-03-20T09:05:15;6.93;;;6.33;;
76210;SDS011;65003;49.518;11.280;2023-03-20T09:07:42;5.90;;;5.40;;
76210;SDS011;65003;49.518;11.280;2023-03-20T09:10:08;6.60;;;5.47;;
76210;SDS011;65003;49.518;11.280;2023-03-20T09:12:36;5.77;;;4.83;;
76210;SDS011;65003;49.518;11.280;2023-03-20T09:15:03;6.57;;;5.17;;
76210;SDS011;65003;49.518;11.280;2023-03-20T09:17:30;7.13;;;6.53;;
76210;SDS011;65003;49.518;11.280;2023-03-20T09:19:56;6.33;;;5.73;;
76210;SDS011;65003;49.518;11.280;2023-03-20T09:22:24;7.37;;;6.67;;
76210;SDS011;65003;49.518;11.280;2023-03-20T09:24:50;6.13;;;5.53;;
76210;SDS011;65003;49.518;11.280;2023-03-20T09:27:17;6.27;;;5.33;;
76210;SDS011;65003;49.518;11.280;2023-03-20T09:29:44;6.27;;;5.67;;
76210;SDS011;65003;49.518;11.280;2023-03-20T09:32:13;5.20;;;4.70;;
76210;SDS011;65003;49.518;11.280;2023-03-20T09:34:39;6.63;;;6.03;;
76210;SDS011;65003;49.518;11.280;2023-03-20T09:37:06;5.70;;;5.20;;
76210;SDS011;65003;49.518;11.280;2023-03-20T09:39:33;6.70;;;6.10;;
76210;SDS011;65003;49.518;11.280;2023-03-20T09:42:03;5.33;;;4.83;;
76210;SDS011;65003;49.518;11.280;2023-03-20T09:44:36;5.20;;;4.63;;
76210;SDS011;65003;49.518;11.280;2023-03-20T09:47:10;7.33;;;6.23;;
76210;SDS011;65003;49.518;11.280;2023-03-20T09:49:39;6.53;;;5.20;;
76210;SDS011;65003;49.518;11.280;2023-03-20T09:54:43;27.03;;;20.37;;
76210;SDS011;65003;49.518;11.280;2023-03-20T09:57:15;62.53;;;43.40;;
76210;SDS011;65003;49.518;11.280;2023-03-20T09:59:39;8.97;;;8.07;;
76210;SDS011;65003;49.518;11.280;2023-03-20T10:02:11;7.20;;;6.47;;
76210;SDS011;65003;49.518;11.280;2023-03-20T10:04:34;7.03;;;5.90;;
76210;SDS011;65003;49.518;11.280;2023-03-20T10:07:02;19.93;;;13.23;;
76210;SDS011;65003;49.518;11.280;2023-03-20T10:09:29;7.80;;;7.00;;
76210;SDS011;65003;49.518;11.280;2023-03-20T10:12:02;5.97;;;5.37;;
76210;SDS011;65003;49.518;11.280;2023-03-20T10:14:42;5.43;;;4.93;;
76210;SDS011;65003;49.518;11.280;2023-03-20T10:19:57;4.70;;;4.30;;
76210;SDS011;65003;49.518;11.280;2023-03-20T10:22:27;4.63;;;4.10;;
76210;SDS011;65003;49.518;11.280;2023-03-20T10:27:56;6.30;;;4.63;;
76210;SDS011;65003;49.518;11.280;2023-03-20T10:30:24;6.27;;;4.80;;
76210;SDS011;65003;49.518;11.280;2023-03-20T10:32:59;3.70;;;3.30;;
76210;SDS011;65003;49.518;11.280;2023-03-20T10:35:42;3.67;;;3.37;;
76210;SDS011;65003;49.518;11.280;2023-03-20T10:38:17;4.73;;;3.70;;
76210;SDS011;65003;49.518;11.280;2023-03-20T10:40:47;3.20;;;2.90;;
76210;SDS011;65003;49.518;11.280;2023-03-20T10:43:15;3.50;;;3.20;;
76210;SDS011;65003;49.518;11.280;2023-03-20T10:45:43;4.73;;;3.53;;
76210;SDS011;65003;49.518;11.280;2023-03-20T10:48:16;4.10;;;3.50;;
76210;SDS011;65003;49.518;11.280;2023-03-20T10:50:42;4.03;;;3.47;;
76210;SDS011;65003;49.518;11.280;2023-03-20T10:53:09;4.17;;;3.37;;
76210;SDS011;65003;49.518;11.280;2023-03-20T10:55:36;5.10;;;3.50;;
76210;SDS011;65003;49.518;11.280;2023-03-20T10:58:07;4.20;;;3.17;;
76210;SDS011;65003;49.518;11.280;2023-03-20T11:00:31;3.53;;;3.17;;
76210;SDS011;65003;49.518;11.280;2023-03-20T11:02:57;3.63;;;3.20;;
76210;SDS011;65003;49.518;11.280;2023-03-20T11:05:40;6.10;;;3.20;;
76210;SDS011;65003;49.518;11.280;2023-03-20T11:08:07;3.87;;;2.67;;
76210;SDS011;65003;49.518;11.280;2023-03-20T11:10:34;3.40;;;2.90;;
76210;SDS011;65003;49.518;11.280;2023-03-20T11:13:03;4.00;;;2.90;;
76210;SDS011;65003;49.518;11.280;2023-03-20T11:15:42;4.00;;;3.40;;
76210;SDS011;65003;49.518;11.280;2023-03-20T11:18:10;4.67;;;3.00;;
76210;SDS011;65003;49.518;11.280;2023-03-20T11:20:37;2.87;;;2.67;;
76210;SDS011;65003;49.518;11.280;2023-03-20T11:23:03;5.07;;;2.80;;
76210;SDS011;65003;49.518;11.280;2023-03-20T11:25:31;4.83;;;2.90;;
76210;SDS011;65003;49.518;11.280;2023-03-20T11:30:39;5.57;;;3.53;;
76210;SDS011;65003;49.518;11.280;2023-03-20T11:33:06;4.77;;;3.07;;
76210;SDS011;65003;49.518;11.280;2023-03-20T11:35:33;4.63;;;2.97;;
76210;SDS011;65003;49.518;11.280;2023-03-20T11:38:09;3.57;;;2.90;;
76210;SDS011;65003;49.518;11.280;2023-03-20T11:40:34;3.07;;;2.77;;
76210;SDS011;65003;49.518;11.280;2023-03-20T11:43:04;3.00;;;2.70;;
76210;SDS011;65003;49.518;11.280;2023-03-20T11:45:33;3.57;;;2.50;;
76210;SDS011;65003;49.518;11.280;2023-03-20T11:48:01;3.93;;;2.60;;
76210;SDS011;65003;49.518;11.280;2023-03-20T11:50:31;3.23;;;2.60;;
76210;SDS011;65003;49.518;11.280;2023-03-20T11:53:01;4.53;;;2.87;;
76210;SDS011;65003;49.518;11.280;2023-03-20T11:55:28;2.50;;;2.30;;
76210;SDS011;65003;49.518;11.280;2023-03-20T11:57:56;3.13;;;2.83;;
76210;SDS011;65003;49.518;11.280;2023-03-20T12:00:23;3.17;;;2.77;;
76210;SDS011;65003;49.518;11.280;2023-03-20T12:02:50;2.93;;;2.47;;
76210;SDS011;65003;49.518;11.280;2023-03-20T12:05:34;2.87;;;2.47;;
76210;SDS011;65003;49.518;11.280;2023-03-20T12:08:04;3.40;;;2.50;;
76210;SDS011;65003;49.518;11.280;2023-03-20T12:10:31;2.70;;;2.50;;
76210;SDS011;65003;49.518;11.280;2023-03-20T12:13:00;4.30;;;2.40;;
76210;SDS011;65003;49.518;11.280;2023-03-20T12:15:26;2.77;;;2.37;;
76210;SDS011;65003;49.518;11.280;2023-03-20T12:17:58;2.77;;;2.30;;
76210;SDS011;65003;49.518;11.280;2023-03-20T12:20:30;3.00;;;2.30;;
76210;SDS011;65003;49.518;11.280;2023-03-20T12:23:10;2.27;;;2.07;;
76210;SDS011;65003;49.518;11.280;2023-03-20T12:25:41;2.30;;;2.10;;
76210;SDS011;65003;49.518;11.280;2023-03-20T12:28:28;5.00;;;2.50;;
76210;SDS011;65003;49.518;11.280;2023-03-20T12:31:16;3.53;;;2.80;;
76210;SDS011;65003;49.518;11.280;2023-03-20T12:33:45;3.03;;;2.60;;
76210;SDS011;65003;49.518;11.280;2023-03-20T12:36:14;4.23;;;2.33;;
76210;SDS011;65003;49.518;11.280;2023-03-20T12:38:38;6.80;;;3.00;;
76210;SDS011;65003;49.518;11.280;2023-03-20T12:41:18;4.00;;;2.83;;
76210;SDS011;65003;49.518;11.280;2023-03-20T12:43:58;3.73;;;2.57;;
76210;SDS011;65003;49.518;11.280;2023-03-20T12:52:27;3.73;;;2.97;;
76210;SDS011;65003;49.518;11.280;2023-03-20T12:55:04;3.10;;;2.77;;
76210;SDS011;65003;49.518;11.280;2023-03-20T12:57:44;3.97;;;3.30;;
76210;SDS011;65003;49.518;11.280;2023-03-20T13:00:15;3.93;;;2.80;;
76210;SDS011;65003;49.518;11.280;2023-03-20T13:02:50;3.60;;;2.73;;
76210;SDS011;65003;49.518;11.280;2023-03-20T13:05:21;2.80;;;2.50;;
76210;SDS011;65003;49.518;11.280;2023-03-20T13:07:51;3.13;;;2.70;;
76210;SDS011;65003;49.518;11.280;2023-03-20T13:10:18;2.77;;;2.47;;
76210;SDS011;65003;49.518;11.280;2023-03-20T13:13:02;3.03;;;2.77;;
76210;SDS011;65003;49.518;11.280;2023-03-20T13:21:12;2.60;;;2.40;;
76210;SDS011;65003;49.518;11.280;2023-03-20T13:24:47;4.27;;;3.10;;
76210;SDS011;65003;49.518;11.280;2023-03-20T13:26:29;3.03;;;2.80;;
76210;SDS011;65003;49.518;11.280;2023-03-20T13:31:36;3.10;;;2.60;;
76210;SDS011;65003;49.518;11.280;2023-03-20T13:34:11;2.77;;;2.43;;
76210;SDS011;65003;49.518;11.280;2023-03-20T13:36:43;4.50;;;2.70;;
76210;SDS011;65003;49.518;11.280;2023-03-20T13:41:52;2.97;;;2.57;;
76210;SDS011;65003;49.518;11.280;2023-03-20T13:44:20;3.27;;;2.70;;
76210;SDS011;65003;49.518;11.280;2023-03-20T13:46:48;3.07;;;2.43;;
76210;SDS011;65003;49.518;11.280;2023-03-20T13:49:19;2.90;;;2.70;;
76210;SDS011;65003;49.518;11.280;2023-03-20T13:52:00;3.70;;;2.80;;
76210;SDS011;65003;49.518;11.280;2023-03-20T13:57:18;3.93;;;2.73;;
76210;SDS011;65003;49.518;11.280;2023-03-20T13:59:57;4.77;;;2.87;;
76210;SDS011;65003;49.518;11.280;2023-03-20T14:02:49;3.33;;;2.80;;
76210;SDS011;65003;49.518;11.280;2023-03-20T14:05:17;4.53;;;2.87;;
76210;SDS011;65003;49.518;11.280;2023-03-20T14:07:46;2.97;;;2.67;;
76210;SDS011;65003;49.518;11.280;2023-03-20T14:13:02;4.30;;;3.23;;
76210;SDS011;65003;49.518;11.280;2023-03-20T14:15:30;3.90;;;3.37;;
76210;SDS011;65003;49.518;11.280;2023-03-20T14:17:53;3.30;;;2.90;;
76210;SDS011;65003;49.518;11.280;2023-03-20T14:20:26;5.03;;;3.33;;
76210;SDS011;65003;49.518;11.280;2023-03-20T14:23:03;5.60;;;3.70;;
76210;SDS011;65003;49.518;11.280;2023-03-20T14:25:33;4.43;;;3.17;;
76210;SDS011;65003;49.518;11.280;2023-03-20T14:28:04;4.27;;;3.73;;
76210;SDS011;65003;49.518;11.280;2023-03-20T14:30:37;4.07;;;3.03;;
76210;SDS011;65003;49.518;11.280;2023-03-20T14:38:48;4.63;;;3.97;;
76210;SDS011;65003;49.518;11.280;2023-03-20T14:41:21;4.27;;;3.20;;
76210;SDS011;65003;49.518;11.280;2023-03-20T14:46:25;3.97;;;2.87;;
76210;SDS011;65003;49.518;11.280;2023-03-20T14:51:59;3.80;;;2.97;;
76210;SDS011;65003;49.518;11.280;2023-03-20T14:54:25;5.50;;;3.43;;
76210;SDS011;65003;49.518;11.280;2023-03-20T14:56:51;4.07;;;3.30;;
76210;SDS011;65003;49.518;11.280;2023-03-20T14:59:19;5.10;;;3.73;;
76210;SDS011;65003;49.518;11.280;2023-03-20T15:01:57;4.30;;;3.33;;
76210;SDS011;65003;49.518;11.280;2023-03-20T15:04:27;3.30;;;2.90;;
76210;SDS011;65003;49.518;11.280;2023-03-20T15:07:01;3.90;;;2.97;;
76210;SDS011;65003;49.518;11.280;2023-03-20T15:09:26;3.30;;;2.60;;
76210;SDS011;65003;49.518;11.280;2023-03-20T15:11:53;3.37;;;3.07;;
76210;SDS011;65003;49.518;11.280;2023-03-20T15:14:21;5.70;;;3.73;;
76210;SDS011;65003;49.518;11.280;2023-03-20T15:16:47;4.03;;;3.10;;
76210;SDS011;65003;49.518;11.280;2023-03-20T15:19:17;5.40;;;4.30;;
76210;SDS011;65003;49.518;11.280;2023-03-20T15:21:43;6.40;;;4.00;;
76210;SDS011;65003;49.518;11.280;2023-03-20T15:24:16;5.87;;;4.13;;
76210;SDS011;65003;49.518;11.280;2023-03-20T15:26:43;4.87;;;3.43;;
76210;SDS011;65003;49.518;11.280;2023-03-20T15:29:11;4.77;;;3.63;;
76210;SDS011;65003;49.518;11.280;2023-03-20T15:31:37;3.93;;;3.43;;
76210;SDS011;65003;49.518;11.280;2023-03-20T15:34:06;4.53;;;3.30;;